Time;durP1;ratioP1;P1;durP2;ratioP2;P2;SDS_P1;SDS_P2;PMS_P1;PMS_P2;Temp;Humidity;BMP_temperature;BMP_pressure;BME280_temperature;BME280_humidity;BME280_pressure;Samples;Min_cycle;Max_cycle;Signal;HPM_P1;HPM_P2
2022/08/11 00:00:08;;;;;;;2.15;1.60;;;21.70;84.50;;;;;;5054987;28;20104;-77
2022/08/11 00:02:37;;;;;;;2.08;1.50;;;21.70;84.40;;;;;;5055594;28;20036;-77
2022/08/11 00:05:15;;;;;;;2.35;1.50;;;21.70;84.30;;;;;;5055065;28;20476;-79
2022/08/11 00:07:46;;;;;;;2.90;1.65;;;21.70;84.30;;;;;;5055780;28;20392;-77
2022/08/11 00:10:14;;;;;;;3.05;1.70;;;21.70;84.40;;;;;;5055469;28;20484;-77
2022/08/11 00:12:42;;;;;;;2.33;1.67;;;21.70;84.30;;;;;;5056000;28;20489;-79
2022/08/11 00:15:09;;;;;;;2.45;1.60;;;21.70;84.30;;;;;;5054518;28;20020;-78
2022/08/11 00:17:36;;;;;;;2.30;1.60;;;21.70;84.30;;;;;;5054568;28;20032;-78
2022/08/11 00:20:06;;;;;;;3.05;1.60;;;21.70;84.40;;;;;;5055334;28;20392;-78
2022/08/11 00:22:33;;;;;;;2.40;1.70;;;21.70;84.50;;;;;;5055755;28;20021;-77
2022/08/11 00:25:20;;;;;;;2.17;1.60;;;21.70;84.50;;;;;;5054324;28;20025;-78
2022/08/11 00:27:47;;;;;;;2.25;1.70;;;21.70;84.60;;;;;;5050512;28;20125;-79
2022/08/11 00:30:14;;;;;;;2.33;1.60;;;21.70;84.60;;;;;;5033908;28;20018;-78
2022/08/11 00:32:42;;;;;;;3.05;1.90;;;21.70;84.70;;;;;;5034068;28;20045;-78
2022/08/11 00:35:12;;;;;;;3.85;1.80;;;21.70;84.70;;;;;;5035312;28;20024;-78
2022/08/11 00:37:39;;;;;;;3.28;1.80;;;21.70;84.60;;;;;;5035375;28;20040;-77
2022/08/11 00:40:09;;;;;;;2.85;1.67;;;21.70;84.80;;;;;;5033862;28;20087;-77
2022/08/11 00:43:21;;;;;;;2.67;1.52;;;21.70;84.70;;;;;;5035362;28;20483;-77
2022/08/11 00:46:16;;;;;;;2.15;1.45;;;21.70;84.70;;;;;;5035122;28;20484;-77
2022/08/11 00:49:07;;;;;;;2.70;1.77;;;21.70;84.60;;;;;;5016380;28;20040;-78
2022/08/11 00:52:16;;;;;;;3.35;1.70;;;21.70;84.50;;;;;;5034885;28;20018;-77
2022/08/11 00:55:06;;;;;;;1.83;1.48;;;21.70;84.50;;;;;;5033722;28;20120;-77
2022/08/11 00:58:02;;;;;;;2.13;1.60;;;21.70;84.40;;;;;;5033068;28;20580;-78
2022/08/11 01:00:33;;;;;;;2.28;1.60;;;21.70;84.50;;;;;;5035043;28;20021;-78
2022/08/11 01:03:19;;;;;;;3.08;1.80;;;21.70;84.50;;;;;;5047436;28;20079;-78
2022/08/11 01:05:56;;;;;;;3.20;1.83;;;21.70;84.50;;;;;;5053210;28;20522;-78
2022/08/11 01:08:42;;;;;;;2.58;1.75;;;21.70;84.60;;;;;;5053245;28;20108;-77
2022/08/11 01:11:46;;;;;;;2.58;1.67;;;21.60;84.70;;;;;;5054262;28;20063;-78
2022/08/11 01:14:33;;;;;;;2.45;1.67;;;21.70;84.70;;;;;;5048331;28;20033;-78
2022/08/11 01:17:25;;;;;;;3.03;1.83;;;21.60;84.80;;;;;;5054460;28;20028;-78
2022/08/11 01:20:07;;;;;;;2.85;1.90;;;21.60;84.80;;;;;;5054438;28;20043;-77
2022/08/11 01:23:02;;;;;;;2.95;1.63;;;21.60;84.80;;;;;;5053607;28;20488;-78
2022/08/11 01:26:01;;;;;;;3.05;1.63;;;21.60;84.90;;;;;;5054146;28;20060;-78
2022/08/11 01:28:55;;;;;;;2.40;1.48;;;21.60;84.90;;;;;;5054245;28;20021;-79
2022/08/11 01:31:55;;;;;;;2.90;1.80;;;21.60;84.90;;;;;;5054200;28;20017;-78
2022/08/11 01:34:47;;;;;;;2.35;1.50;;;21.70;84.90;;;;;;5053041;28;20029;-79
2022/08/11 01:37:50;;;;;;;2.92;1.60;;;21.70;84.80;;;;;;5052929;28;20021;-78
2022/08/11 01:40:37;;;;;;;2.53;1.65;;;21.70;84.70;;;;;;5054115;28;20032;-77
2022/08/11 01:47:49;;;;;;;2.40;1.65;;;21.70;84.60;;;;;;5054035;28;20027;-78
2022/08/11 01:50:08;;;;;;;3.60;1.90;;;21.70;85.30;;;;;;5052802;28;20029;-78
2022/08/11 01:52:47;;;;;;;3.10;1.83;;;21.70;84.80;;;;;;5053773;28;20040;-78
2022/08/11 01:55:28;;;;;;;2.83;1.83;;;21.70;84.90;;;;;;5052511;28;20032;-77
2022/08/11 01:58:06;;;;;;;2.58;1.77;;;21.60;84.80;;;;;;5053523;28;20110;-77
2022/08/11 02:00:52;;;;;;;2.90;1.90;;;21.60;84.90;;;;;;5053398;28;20036;-78
2022/08/11 02:04:00;;;;;;;2.83;1.83;;;21.60;85.00;;;;;;5037791;28;20492;-78
2022/08/11 02:07:01;;;;;;;2.70;1.77;;;21.60;85.00;;;;;;5030212;28;20048;-78
2022/08/11 02:11:29;;;;;;;2.35;1.60;;;21.60;85.00;;;;;;5047919;28;20481;-79
2022/08/11 02:12:56;;;;;;;2.38;1.70;;;21.60;85.10;;;;;;5033023;28;20036;-78
2022/08/11 02:15:35;;;;;;;2.42;1.70;;;21.60;85.10;;;;;;5048602;28;20025;-78
2022/08/11 02:18:23;;;;;;;2.20;1.67;;;21.60;85.20;;;;;;5033293;28;20033;-79
2022/08/11 02:24:00;;;;;;;2.50;1.63;;;21.60;85.00;;;;;;5033271;28;20028;-78
2022/08/11 02:26:49;;;;;;;1.60;1.27;;;21.60;84.90;;;;;;5033241;28;20021;-77
2022/08/11 02:29:46;;;;;;;2.00;1.50;;;21.70;84.80;;;;;;5031638;28;20033;-78
2022/08/11 02:35:35;;;;;;;2.00;1.40;;;21.70;84.80;;;;;;5035513;28;20087;-78
2022/08/11 02:38:26;;;;;;;2.95;1.77;;;21.60;84.80;;;;;;5041742;28;20071;-78
2022/08/11 02:41:01;;;;;;;2.42;1.55;;;21.70;84.90;;;;;;5031120;28;20508;-78
2022/08/11 02:43:40;;;;;;;2.83;1.80;;;21.60;84.90;;;;;;5032928;28;20026;-78
2022/08/11 02:46:27;;;;;;;2.97;1.80;;;21.60;85.00;;;;;;5032715;28;20045;-78
2022/08/11 02:52:07;;;;;;;2.90;2.00;;;21.60;85.10;;;;;;5032898;28;20070;-77
2022/08/11 02:55:10;;;;;;;2.47;1.80;;;21.60;85.10;;;;;;5031543;28;20037;-77
2022/08/11 02:57:48;;;;;;;2.53;1.70;;;21.60;85.10;;;;;;5016627;28;20042;-79
2022/08/11 03:00:16;;;;;;;2.58;1.80;;;21.60;85.20;;;;;;5031053;28;20048;-78
2022/08/11 03:03:17;;;;;;;2.90;1.90;;;21.60;85.20;;;;;;5032643;28;20114;-78
2022/08/11 03:06:13;;;;;;;2.55;1.70;;;21.60;85.30;;;;;;5033830;28;20472;-77
2022/08/11 03:09:03;;;;;;;2.22;1.65;;;21.60;85.20;;;;;;5047798;28;20030;-77
2022/08/11 03:17:55;;;;;;;2.70;1.60;;;21.60;84.90;;;;;;5033875;28;20392;-78
2022/08/11 03:20:44;;;;;;;2.40;1.65;;;21.70;84.90;;;;;;5036133;28;20031;-78
2022/08/11 03:23:32;;;;;;;2.72;1.67;;;21.70;84.90;;;;;;5035482;28;20063;-78
2022/08/11 03:26:14;;;;;;;3.35;2.00;;;21.60;84.70;;;;;;5036746;28;20396;-78
2022/08/11 03:29:00;;;;;;;3.38;1.80;;;21.60;85.00;;;;;;5052012;28;20121;-79
2022/08/11 03:31:39;;;;;;;2.00;1.50;;;21.60;85.00;;;;;;5036524;28;20022;-77
2022/08/11 03:34:14;;;;;;;2.55;1.70;;;21.60;85.10;;;;;;5052149;28;20033;-77
2022/08/11 03:37:01;;;;;;;2.97;1.95;;;21.60;85.10;;;;;;5063735;28;20059;-77
2022/08/11 03:39:47;;;;;;;2.58;1.63;;;21.60;85.20;;;;;;5054906;28;20036;-78
2022/08/11 03:42:42;;;;;;;2.25;1.70;;;21.60;85.20;;;;;;5056202;28;20020;-78
2022/08/11 03:45:29;;;;;;;2.30;1.70;;;21.60;85.30;;;;;;5056127;28;20036;-77
2022/08/11 03:48:18;;;;;;;2.75;1.80;;;21.50;85.20;;;;;;5055015;28;20100;-78
2022/08/11 03:50:54;;;;;;;2.72;1.75;;;21.60;85.30;;;;;;5054689;28;20123;-77
2022/08/11 03:53:44;;;;;;;2.38;1.40;;;21.60;85.30;;;;;;5055677;28;20094;-78
2022/08/11 03:56:10;;;;;;;2.13;1.52;;;21.60;85.30;;;;;;5055821;28;20017;-78
2022/08/11 03:59:16;;;;;;;2.65;1.80;;;21.60;85.20;;;;;;5054472;28;20037;-78
2022/08/11 04:02:18;;;;;;;2.67;1.67;;;21.60;85.10;;;;;;5055618;28;20025;-77
2022/08/11 04:05:25;;;;;;;2.10;1.55;;;21.60;85.00;;;;;;5054596;28;20021;-77
2022/08/11 04:08:10;;;;;;;3.40;1.73;;;21.60;84.90;;;;;;5054294;28;20123;-78
2022/08/11 04:11:08;;;;;;;1.83;1.35;;;21.60;84.90;;;;;;5054205;28;20501;-76
2022/08/11 04:17:35;;;;;;;3.25;1.88;;;21.60;85.00;;;;;;5055326;28;20083;-77
2022/08/11 04:20:18;;;;;;;2.53;1.70;;;21.60;85.10;;;;;;5053800;28;20028;-77
2022/08/11 04:23:01;;;;;;;2.60;1.70;;;21.60;85.10;;;;;;5055163;28;20475;-77
2022/08/11 04:25:43;;;;;;;3.47;1.80;;;21.60;85.20;;;;;;5053639;28;20033;-79
2022/08/11 04:28:33;;;;;;;3.03;1.85;;;21.60;85.20;;;;;;5054338;28;20021;-78
2022/08/11 04:31:09;;;;;;;2.45;1.50;;;21.50;85.10;;;;;;5045245;28;20017;-79
2022/08/11 04:33:58;;;;;;;2.28;1.67;;;21.60;85.30;;;;;;5035510;28;20029;-79
2022/08/11 04:40:05;;;;;;;2.20;1.65;;;21.60;85.30;;;;;;5055217;28;20071;-77
2022/08/11 04:46:10;;;;;;;3.00;1.60;;;21.50;85.20;;;;;;5056880;28;20036;-77
2022/08/11 05:01:40;;;;;;;2.03;1.50;;;21.60;84.90;;;;;;5055600;28;20407;-79
2022/08/11 05:09:53;;;;;;;2.92;1.88;;;21.60;85.00;;;;;;5546504;23;20053;-78
2022/08/11 05:12:39;;;;;;;2.75;1.77;;;21.60;85.00;;;;;;4990890;28;20026;-77
2022/08/11 05:35:11;;;;;;;2.85;1.80;;;21.60;85.10;;;;;;4975233;28;20643;-77
2022/08/11 05:57:22;;;;;;;4.72;1.88;;;21.70;84.10;;;;;;4974667;28;20033;-78
2022/08/11 05:59:49;;;;;;;3.88;1.90;;;21.70;84.10;;;;;;4974227;28;20402;-78
2022/08/11 06:02:15;;;;;;;4.10;1.92;;;21.70;84.10;;;;;;4974498;28;20089;-76
2022/08/11 06:04:42;;;;;;;3.83;1.88;;;21.70;84.00;;;;;;4974609;28;20046;-78
2022/08/11 06:07:09;;;;;;;4.18;1.95;;;21.70;84.00;;;;;;4974430;28;20023;-79
2022/08/11 06:09:39;;;;;;;3.60;2.15;;;21.70;83.90;;;;;;4973966;28;20027;-77
2022/08/11 06:12:07;;;;;;;3.50;2.00;;;21.70;83.80;;;;;;4973155;28;20035;-78
2022/08/11 06:14:34;;;;;;;5.28;2.15;;;21.70;83.80;;;;;;4974470;28;20033;-78
2022/08/11 06:17:05;;;;;;;4.05;1.80;;;21.70;83.80;;;;;;4974263;28;20023;-77
2022/08/11 06:19:39;;;;;;;3.28;2.00;;;21.70;83.80;;;;;;4974329;28;20051;-78
2022/08/11 06:22:09;;;;;;;2.75;1.70;;;21.70;83.90;;;;;;4973053;28;20073;-77
2022/08/11 06:24:38;;;;;;;3.22;1.90;;;21.80;83.80;;;;;;4956768;28;20442;-78
2022/08/11 06:27:05;;;;;;;3.97;1.90;;;21.80;83.70;;;;;;4973916;28;20030;-76
2022/08/11 06:29:35;;;;;;;3.90;1.83;;;21.80;83.60;;;;;;4973650;28;20027;-78
2022/08/11 06:32:02;;;;;;;3.58;1.80;;;21.80;83.40;;;;;;4972670;28;20027;-78
2022/08/11 06:34:33;;;;;;;6.00;2.10;;;21.90;83.20;;;;;;4973943;28;20058;-77
2022/08/11 06:37:07;;;;;;;4.07;1.80;;;21.90;83.10;;;;;;4973855;28;20033;-77
2022/08/11 06:40:00;;;;;;;4.18;2.10;;;21.90;83.10;;;;;;4956245;28;20042;-77
2022/08/11 06:43:00;;;;;;;3.63;1.90;;;21.90;83.10;;;;;;4973677;28;20022;-78
2022/08/11 06:46:01;;;;;;;3.60;1.83;;;21.90;83.10;;;;;;4956541;28;20033;-79
2022/08/11 06:48:31;;;;;;;3.58;2.00;;;21.90;83.00;;;;;;4957731;28;20041;-76
2022/08/11 06:51:13;;;;;;;2.70;1.75;;;21.90;83.10;;;;;;4975228;28;20023;-78
2022/08/11 06:53:46;;;;;;;3.63;2.05;;;21.90;83.10;;;;;;4974935;28;20117;-78
2022/08/11 07:02:09;;;;;;;4.20;2.13;;;22.00;83.00;;;;;;4992781;28;20052;-76
2022/08/11 07:04:43;;;;;;;3.45;1.90;;;22.00;83.00;;;;;;4992741;28;20049;-77
2022/08/11 07:16:27;;;;;;;3.65;1.85;;;22.10;82.90;;;;;;4992901;28;20130;-78
2022/08/11 07:30:13;;;;;;;5.30;2.03;;;22.30;82.10;;;;;;4992833;28;20057;-78
2022/08/11 07:32:49;;;;;;;3.33;1.90;;;22.30;82.30;;;;;;4992483;28;20022;-77
2022/08/11 07:35:19;;;;;;;2.88;1.73;;;22.30;82.20;;;;;;4975289;28;20061;-78
2022/08/11 07:37:49;;;;;;;3.50;1.95;;;22.30;82.20;;;;;;4992630;28;20033;-77
2022/08/11 07:40:21;;;;;;;4.27;1.93;;;22.30;82.20;;;;;;4992457;28;20030;-77
2022/08/11 07:42:51;;;;;;;3.35;2.00;;;22.30;82.20;;;;;;4975012;28;20297;-78
2022/08/11 07:53:33;;;;;;;4.05;2.20;;;22.40;82.20;;;;;;4992484;28;20033;-77
2022/08/11 07:56:00;;;;;;;4.18;2.30;;;22.40;82.10;;;;;;4974962;28;20547;-76
2022/08/11 08:17:57;;;;;;;5.00;2.28;;;22.60;81.10;;;;;;4995893;28;20412;-79
2022/08/11 08:20:39;;;;;;;4.15;2.30;;;22.70;81.20;;;;;;4977958;28;20026;-78
2022/08/11 08:23:05;;;;;;;4.50;2.33;;;22.70;81.40;;;;;;4978440;28;20042;-77
2022/08/11 08:25:33;;;;;;;3.88;2.50;;;22.70;81.40;;;;;;4995907;28;20077;-77
2022/08/11 08:28:05;;;;;;;3.58;2.28;;;22.70;81.40;;;;;;4995590;28;20049;-77
2022/08/11 08:33:20;;;;;;;4.78;2.58;;;22.70;81.40;;;;;;4995767;28;20042;-78
2022/08/11 08:35:47;;;;;;;3.85;2.15;;;22.70;81.40;;;;;;4995775;28;20401;-77
2022/08/11 08:38:13;;;;;;;5.22;2.30;;;22.70;81.30;;;;;;4995251;28;20058;-78
2022/08/11 08:40:42;;;;;;;3.72;2.38;;;22.80;81.40;;;;;;4995270;28;20057;-76
2022/08/11 08:43:13;;;;;;;3.97;2.35;;;22.80;81.30;;;;;;4977994;28;20026;-78
2022/08/11 08:45:41;;;;;;;4.75;2.80;;;22.80;81.30;;;;;;4995474;28;20022;-78
2022/08/11 08:48:12;;;;;;;4.70;2.38;;;22.80;81.10;;;;;;4994827;28;20042;-76
2022/08/11 08:53:37;;;;;;;3.88;2.15;;;22.90;80.90;;;;;;4995293;28;20041;-78
2022/08/11 08:56:06;;;;;;;5.00;2.47;;;22.90;80.70;;;;;;4978008;28;20030;-77
2022/08/11 08:58:36;;;;;;;3.70;2.40;;;23.00;80.60;;;;;;4977976;28;20100;-77
2022/08/11 09:01:03;;;;;;;3.97;2.42;;;23.00;80.40;;;;;;4977680;28;20022;-79
2022/08/11 09:03:29;;;;;;;4.47;2.47;;;23.00;80.20;;;;;;4994996;28;20500;-76
2022/08/11 09:05:55;;;;;;;4.47;2.40;;;23.00;80.40;;;;;;4977544;28;20416;-78
2022/08/11 09:08:22;;;;;;;3.67;2.15;;;23.00;80.60;;;;;;4977393;28;20068;-78
2022/08/11 09:11:48;;;;;;;3.47;2.05;;;23.00;80.70;;;;;;4977317;28;20053;-78
2022/08/11 09:13:35;;;;;;;4.10;2.58;;;23.00;80.80;;;;;;4994851;28;20500;-76
2022/08/11 09:16:05;;;;;;;4.05;2.67;;;23.00;80.80;;;;;;4996304;28;20030;-76
2022/08/11 09:18:31;;;;;;;4.03;2.53;;;23.00;80.80;;;;;;4976047;28;20033;-77
2022/08/11 09:20:57;;;;;;;3.70;2.45;;;23.00;80.90;;;;;;5005330;28;20027;-78
2022/08/11 09:28:54;;;;;;;3.72;2.25;;;23.10;80.60;;;;;;4994898;28;20559;-76
2022/08/11 09:31:21;;;;;;;4.22;2.30;;;23.10;80.70;;;;;;4994301;28;20018;-76
2022/08/11 09:33:50;;;;;;;5.22;2.65;;;23.10;80.60;;;;;;4979159;28;20042;-79
2022/08/11 09:41:49;;;;;;;3.05;2.08;;;23.10;80.50;;;;;;4994294;28;20084;-78
2022/08/11 09:46:59;;;;;;;3.80;2.58;;;23.20;80.30;;;;;;4994113;28;20073;-78
2022/08/11 09:49:26;;;;;;;4.07;2.35;;;23.20;80.70;;;;;;4993599;28;20022;-78
2022/08/11 09:51:53;;;;;;;4.50;2.63;;;23.20;80.00;;;;;;4976412;28;20077;-78
2022/08/11 09:54:21;;;;;;;3.92;2.40;;;23.20;80.20;;;;;;4994191;28;20023;-78
2022/08/11 09:59:32;;;;;;;3.33;2.20;;;23.20;80.30;;;;;;4993673;28;20548;-78
2022/08/11 10:02:01;;;;;;;3.55;2.25;;;23.20;80.40;;;;;;4976310;28;20030;-78
2022/08/11 10:04:44;;;;;;;3.85;2.30;;;23.20;80.40;;;;;;4993534;28;20026;-79
2022/08/11 10:07:13;;;;;;;3.95;2.20;;;23.10;80.30;;;;;;4976334;28;20069;-77
2022/08/11 10:09:51;;;;;;;3.55;2.17;;;23.10;80.40;;;;;;4975847;28;20034;-78
2022/08/11 10:12:33;;;;;;;3.65;2.10;;;23.20;80.40;;;;;;4976320;28;20029;-78
2022/08/11 10:20:37;;;;;;;3.85;2.40;;;23.20;80.40;;;;;;4993206;28;20084;-78
2022/08/11 10:28:35;;;;;;;3.55;2.25;;;23.30;80.30;;;;;;4992954;28;20045;-77
2022/08/11 10:34:00;;;;;;;3.63;2.10;;;23.30;79.90;;;;;;4993791;28;20044;-78
2022/08/11 10:36:37;;;;;;;3.05;2.13;;;23.40;79.80;;;;;;4976003;28;20118;-78
2022/08/11 10:39:04;;;;;;;3.22;2.00;;;23.30;79.60;;;;;;4993521;28;20033;-79
2022/08/11 10:44:15;;;;;;;3.00;1.98;;;23.30;79.90;;;;;;4993383;28;20551;-78
2022/08/11 10:49:25;;;;;;;3.88;2.20;;;23.30;80.00;;;;;;4993217;28;20109;-78
2022/08/11 11:00:13;;;;;;;3.55;2.20;;;23.30;80.10;;;;;;4993121;28;20066;-81
2022/08/11 11:02:40;;;;;;;3.08;1.98;;;23.30;80.10;;;;;;4986749;28;20105;-77
2022/08/11 11:05:23;;;;;;;3.08;2.03;;;23.30;80.10;;;;;;4992257;28;20053;-79
2022/08/11 11:08:51;;;;;;;2.60;1.90;;;23.30;80.10;;;;;;4993200;28;20481;-78
2022/08/11 11:10:52;;;;;;;3.40;1.90;;;23.30;80.20;;;;;;4993043;28;20655;-79
2022/08/11 11:18:49;;;;;;;2.80;2.03;;;23.30;79.80;;;;;;4974287;28;20151;-78
2022/08/11 11:21:18;;;;;;;2.70;1.80;;;23.40;79.80;;;;;;4974532;28;20038;-79
2022/08/11 11:24:03;;;;;;;3.00;1.95;;;23.40;79.70;;;;;;4993245;28;20089;-77
2022/08/11 11:26:32;;;;;;;3.05;1.98;;;23.30;79.50;;;;;;4989157;28;20026;-76
2022/08/11 11:29:19;;;;;;;3.00;2.08;;;23.40;79.80;;;;;;4969032;28;20404;-77
2022/08/11 11:32:16;;;;;;;3.35;1.90;;;23.30;79.70;;;;;;4973761;28;20485;-77
2022/08/11 11:34:59;;;;;;;3.47;2.10;;;23.30;80.00;;;;;;4956510;28;20027;-78
2022/08/11 11:37:28;;;;;;;3.08;1.90;;;23.30;80.10;;;;;;4964013;28;20482;-77
2022/08/11 11:39:56;;;;;;;3.47;2.10;;;23.30;80.10;;;;;;4992009;28;20037;-77
2022/08/11 11:42:22;;;;;;;3.33;2.10;;;23.20;80.10;;;;;;4978238;28;20553;-77
2022/08/11 11:44:48;;;;;;;2.42;1.80;;;23.20;80.20;;;;;;4977652;28;20027;-78
2022/08/11 11:47:18;;;;;;;3.70;1.95;;;23.20;80.10;;;;;;4995760;28;20038;-77
2022/08/11 11:49:45;;;;;;;2.40;1.83;;;23.20;80.20;;;;;;4977532;28;20025;-77
2022/08/11 11:52:18;;;;;;;3.15;1.90;;;23.20;80.20;;;;;;4995958;28;20026;-78
2022/08/11 11:54:49;;;;;;;3.45;2.10;;;23.20;80.30;;;;;;4978811;28;20022;-78
2022/08/11 12:02:49;;;;;;;4.63;2.38;;;23.20;80.30;;;;;;4997550;28;20033;-78
2022/08/11 12:05:15;;;;;;;7.22;2.30;;;23.20;80.70;;;;;;4996261;28;20030;-78
2022/08/11 12:10:26;;;;;;;6.32;2.20;;;23.30;79.60;;;;;;4989130;28;20512;-78
2022/08/11 12:15:37;;;;;;;6.22;2.25;;;23.30;79.30;;;;;;4989799;28;20073;-78
2022/08/11 12:18:03;;;;;;;6.70;2.35;;;23.20;79.40;;;;;;4977589;28;20022;-77
2022/08/11 12:20:30;;;;;;;4.80;1.90;;;23.20;79.50;;;;;;4994787;28;20045;-78
2022/08/11 12:28:28;;;;;;;6.40;1.85;;;23.10;79.90;;;;;;4995085;28;20033;-77
2022/08/11 12:30:54;;;;;;;5.80;1.90;;;23.10;80.00;;;;;;4994874;28;20397;-77
2022/08/11 12:33:20;;;;;;;5.80;2.10;;;23.10;80.10;;;;;;4977590;28;20110;-77
2022/08/11 12:35:51;;;;;;;4.63;2.40;;;23.10;80.20;;;;;;4994466;28;20027;-77
2022/08/11 12:38:20;;;;;;;4.43;2.15;;;23.10;80.30;;;;;;4976891;28;20473;-78
2022/08/11 12:46:22;;;;;;;5.68;2.10;;;23.10;80.50;;;;;;4994756;28;20034;-78
2022/08/11 12:52:00;;;;;;;4.70;2.13;;;23.10;80.40;;;;;;4994060;28;20081;-76
2022/08/11 12:55:11;;;;;;;3.40;1.90;;;23.10;80.30;;;;;;4976295;28;20026;-75
2022/08/11 13:06:01;;;;;;;3.55;2.10;;;23.00;80.30;;;;;;4986771;28;20547;-76
2022/08/11 13:08:29;;;;;;;7.45;2.22;;;23.00;80.50;;;;;;4974925;28;20113;-76
2022/08/11 13:13:45;;;;;;;3.97;2.13;;;22.90;79.20;;;;;;4993652;28;20045;-76
2022/08/11 13:16:13;;;;;;;6.38;2.70;;;22.90;79.60;;;;;;4992505;28;20033;-77
2022/08/11 13:18:41;;;;;;;6.53;2.47;;;22.90;79.40;;;;;;4974519;28;20038;-74
2022/08/11 13:21:10;;;;;;;7.53;2.30;;;22.90;79.10;;;;;;4978050;28;20447;-73
2022/08/11 13:23:37;;;;;;;4.72;2.10;;;22.90;79.10;;;;;;4975668;28;20041;-76
2022/08/11 13:26:03;;;;;;;6.22;2.20;;;22.80;79.20;;;;;;4975604;28;20027;-76
2022/08/11 13:28:29;;;;;;;5.00;2.15;;;22.80;79.30;;;;;;4992940;28;20018;-76
2022/08/11 13:31:10;;;;;;;4.28;2.20;;;22.80;79.40;;;;;;4975372;28;20022;-77
2022/08/11 13:33:43;;;;;;;;;;;22.80;79.70;;;;;;4975488;28;20038;-76
2022/08/11 13:36:09;;;;;;;3.78;2.28;;;22.80;79.60;;;;;;4974735;28;19913;-77
2022/08/11 13:38:37;;;;;;;3.20;1.80;;;22.80;79.70;;;;;;4991989;28;20081;-77
2022/08/11 13:41:36;;;;;;;5.78;2.20;;;22.80;79.70;;;;;;4993383;28;20134;-76
2022/08/11 13:43:49;;;;;;;7.40;2.40;;;22.90;79.60;;;;;;4992315;28;20026;-76
2022/08/11 13:46:19;;;;;;;5.13;2.17;;;22.90;79.60;;;;;;4993638;28;20026;-77
2022/08/11 13:48:45;;;;;;;4.93;2.00;;;22.90;79.60;;;;;;4999491;28;20022;-77
2022/08/11 13:51:31;;;;;;;5.85;2.30;;;22.80;79.80;;;;;;4996456;28;20018;-77
2022/08/11 13:54:18;;;;;;;8.30;2.58;;;22.80;79.90;;;;;;4992542;28;20101;-76
2022/08/11 13:56:48;;;;;;;6.25;2.30;;;22.80;80.00;;;;;;4980408;28;20022;-77
2022/08/11 13:59:19;;;;;;;6.05;2.22;;;22.80;80.10;;;;;;4992704;28;20409;-78
2022/08/11 14:01:48;;;;;;;4.85;2.30;;;22.70;80.10;;;;;;4993255;28;20031;-77
2022/08/11 14:04:19;;;;;;;4.25;2.33;;;22.70;80.40;;;;;;4974752;28;20031;-76
2022/08/11 14:06:50;;;;;;;5.18;2.20;;;22.70;80.40;;;;;;4975768;28;20023;-77
2022/08/11 14:09:25;;;;;;;4.95;2.47;;;22.70;80.60;;;;;;4975439;28;20555;-76
2022/08/11 14:14:42;;;;;;;5.43;2.13;;;22.70;80.70;;;;;;4989935;28;20038;-77
2022/08/11 14:17:09;;;;;;;3.13;1.95;;;22.70;80.80;;;;;;4992955;28;20093;-76
2022/08/11 14:19:39;;;;;;;3.53;2.08;;;22.60;80.80;;;;;;4974889;28;20027;-77
2022/08/11 14:22:08;;;;;;;5.85;2.47;;;22.60;80.90;;;;;;4975332;28;20476;-76
2022/08/11 14:24:41;;;;;;;4.93;2.30;;;22.70;81.00;;;;;;4975633;28;20397;-77
2022/08/11 14:27:10;;;;;;;5.38;2.22;;;22.70;80.90;;;;;;4995744;28;20030;-77
2022/08/11 14:29:37;;;;;;;3.88;2.15;;;22.70;80.90;;;;;;4995669;28;20029;-77
2022/08/11 14:32:06;;;;;;;4.45;2.40;;;22.70;80.70;;;;;;4981756;28;20040;-76
2022/08/11 14:34:34;;;;;;;4.25;2.33;;;22.70;80.70;;;;;;4994046;28;20485;-77
2022/08/11 14:37:20;;;;;;;4.70;2.30;;;22.70;80.60;;;;;;4992158;28;20409;-77
2022/08/11 14:39:50;;;;;;;4.95;2.30;;;22.70;80.70;;;;;;4992384;28;20023;-77
2022/08/11 14:48:02;;;;;;;4.88;2.08;;;22.60;81.10;;;;;;4993214;28;20037;-76
2022/08/11 14:50:30;;;;;;;5.35;2.10;;;22.60;81.20;;;;;;4991524;28;20442;-76
2022/08/11 14:53:00;;;;;;;3.95;2.20;;;22.60;81.20;;;;;;4986286;28;20045;-77
2022/08/11 14:58:16;;;;;;;3.55;2.00;;;22.60;81.30;;;;;;4989578;28;20033;-77
2022/08/11 15:00:43;;;;;;;3.88;2.30;;;22.60;81.40;;;;;;4991964;28;20049;-77
2022/08/11 15:03:14;;;;;;;3.63;2.17;;;22.60;81.50;;;;;;4980674;28;20034;-77
2022/08/11 15:06:06;;;;;;;4.28;2.10;;;22.60;81.60;;;;;;4986835;28;20421;-77
2022/08/11 15:08:55;;;;;;;3.72;1.88;;;22.50;81.60;;;;;;4989827;28;20034;-76
2022/08/11 15:14:10;;;;;;;3.72;2.30;;;22.60;81.70;;;;;;4993572;28;20045;-77
2022/08/11 15:19:23;;;;;;;2.95;1.90;;;22.60;81.50;;;;;;4995190;28;20547;-76
2022/08/11 15:24:35;;;;;;;4.47;2.30;;;22.60;81.30;;;;;;4986494;28;20549;-76
2022/08/11 15:38:24;;;;;;;3.35;2.00;;;22.50;81.70;;;;;;4992151;28;20552;-77
2022/08/11 15:46:38;;;;;;;3.88;2.38;;;22.50;81.90;;;;;;4991634;28;20026;-77
2022/08/11 15:49:12;;;;;;;4.05;2.30;;;22.50;82.00;;;;;;4990648;28;20037;-77
2022/08/11 15:51:49;;;;;;;4.35;2.00;;;22.50;82.00;;;;;;4989432;28;20030;-77
2022/08/11 15:54:21;;;;;;;3.70;2.17;;;22.50;82.00;;;;;;4991891;28;20053;-77
2022/08/11 15:56:49;;;;;;;3.38;2.08;;;22.40;82.00;;;;;;4990421;28;20042;-77
2022/08/11 16:04:56;;;;;;;4.15;2.22;;;22.50;82.00;;;;;;4975923;28;20121;-77
2022/08/11 16:07:26;;;;;;;4.10;2.10;;;22.50;81.90;;;;;;4991665;28;20058;-77
2022/08/11 16:10:09;;;;;;;3.70;2.08;;;22.60;81.90;;;;;;4991413;28;20030;-77
2022/08/11 16:16:12;;;;;;;4.25;2.10;;;22.60;81.80;;;;;;4991622;28;20033;-77
2022/08/11 16:18:17;;;;;;;3.75;2.20;;;22.60;81.80;;;;;;4991264;28;20034;-74
2022/08/11 16:20:45;;;;;;;4.23;2.00;;;22.50;81.80;;;;;;4991172;28;20030;-74
2022/08/11 16:23:14;;;;;;;4.00;2.00;;;22.50;81.90;;;;;;4991165;28;20038;-74
2022/08/11 16:25:41;;;;;;;4.43;2.30;;;22.50;82.10;;;;;;4989749;28;20493;-74
2022/08/11 16:28:10;;;;;;;3.42;2.03;;;22.50;82.30;;;;;;4993736;28;20018;-74
2022/08/11 16:30:39;;;;;;;3.50;2.00;;;22.50;82.30;;;;;;4994201;28;20037;-74
2022/08/11 16:33:07;;;;;;;3.38;2.10;;;22.50;82.30;;;;;;4993367;28;20065;-74
2022/08/11 16:38:41;;;;;;;4.25;2.47;;;22.40;82.30;;;;;;4994584;28;20041;-75
2022/08/11 16:41:14;;;;;;;3.38;2.28;;;22.50;82.40;;;;;;4979392;28;20026;-75
2022/08/11 16:49:20;;;;;;;3.83;2.05;;;22.40;82.50;;;;;;4993634;28;20730;-74
2022/08/11 16:51:46;;;;;;;3.65;2.05;;;22.40;82.50;;;;;;4993672;28;20026;-75
2022/08/11 16:54:12;;;;;;;3.78;2.00;;;22.50;82.50;;;;;;4993838;28;20038;-74
2022/08/11 16:56:44;;;;;;;3.55;2.20;;;22.50;82.40;;;;;;4980006;28;20034;-77
2022/08/11 16:59:17;;;;;;;3.83;2.20;;;22.50;82.30;;;;;;4973930;28;20078;-75
2022/08/11 17:01:54;;;;;;;2.88;1.88;;;22.50;82.30;;;;;;4974283;28;20022;-77
2022/08/11 17:13:08;;;;;;;3.40;2.08;;;22.40;82.40;;;;;;4997766;28;20044;-78
2022/08/11 17:16:09;;;;;;;3.83;1.98;;;22.40;82.50;;;;;;4981070;28;20027;-78
2022/08/11 17:18:41;;;;;;;2.75;1.90;;;22.40;82.60;;;;;;4981005;28;20041;-79
2022/08/11 17:21:21;;;;;;;5.80;2.30;;;22.40;82.60;;;;;;4978653;28;20165;-78
2022/08/11 17:23:57;;;;;;;4.43;2.15;;;22.40;82.20;;;;;;4978190;28;20409;-78
2022/08/11 17:26:57;;;;;;;2.60;1.90;;;22.40;81.90;;;;;;4979448;28;20032;-78
2022/08/11 17:29:39;;;;;;;4.85;2.40;;;22.40;82.10;;;;;;4994513;28;20073;-77
2022/08/11 17:37:43;;;;;;;3.88;2.33;;;22.40;82.10;;;;;;4993045;28;20524;-77
2022/08/11 17:40:11;;;;;;;3.70;2.20;;;22.40;82.00;;;;;;4975007;28;20026;-77
2022/08/11 17:48:27;;;;;;;4.55;2.08;;;22.50;81.60;;;;;;4982029;28;20030;-77
2022/08/11 17:51:05;;;;;;;3.83;2.30;;;22.50;81.60;;;;;;4985158;28;20025;-76
2022/08/11 18:03:28;;;;;;;4.32;2.35;;;22.40;81.80;;;;;;4992054;28;20552;-78
2022/08/11 18:04:49;;;;;;;3.28;1.90;;;22.40;81.80;;;;;;4991977;28;20117;-77
